Time;durP1;ratioP1;P1;durP2;ratioP2;P2;SDS_P1;SDS_P2;PMS_P1;PMS_P2;Temp;Humidity;BMP_temperature;BMP_pressure;BME280_temperature;BME280_humidity;BME280_pressure;Samples;Min_cycle;Max_cycle;Signal;HPM_P1;HPM_P2
2022/12/30 00:00:56;;;;;;;;;;;;;;;;;;4808925;29;20029;-85
2022/12/30 00:03:22;;;;;;;;;;;;;;;;;;4808968;29;19968;-86
2022/12/30 00:05:47;;;;;;;;;;;;;;;;;;4808720;29;19928;-85
2022/12/30 00:10:56;;;;;;;;;;;;;;;;;;4808893;29;19996;-86
2022/12/30 00:33:09;;;;;;;;;;;;;;;;;;4809049;29;20277;-85
2022/12/30 00:35:38;;;;;;;;;;;;;;;;;;4808441;29;19980;-85
2022/12/30 00:38:04;;;;;;;;;;;;;;;;;;4808417;29;19928;-85
2022/12/30 00:40:29;;;;;;;;;;;;;;;;;;4808163;29;19921;-84
2022/12/30 00:43:09;;;;;;;;;;;;;;;;;;4808227;29;19922;-85
2022/12/30 00:45:40;;;;;;;;;;;;;;;;;;4808168;29;19928;-85
2022/12/30 00:56:19;;;;;;;;;;;;;;;;;;4808344;29;20349;-84
2022/12/30 00:58:44;;;;;;;;;;;;;;;;;;4807980;29;19948;-85
2022/12/30 01:01:10;;;;;;;;;;;;;;;;;;4791659;29;19970;-84
2022/12/30 01:03:35;;;;;;;;;;;;;;;;;;4807710;29;20290;-84
2022/12/30 01:06:06;;;;;;;;;;;;;;;;;;4808071;29;19993;-84
2022/12/30 01:08:32;;;;;;;;;;;;;;;;;;4807760;29;19925;-84
2022/12/30 01:10:57;;;;;;;;;;;;;;;;;;4807674;29;19929;-84
2022/12/30 01:13:23;;;;;;;;;;;;;;;;;;4791400;29;20409;-84
2022/12/30 01:15:48;;;;;;;;;;;;;;;;;;4791357;29;19925;-85
2022/12/30 01:18:14;;;;;;;;;;;;;;;;;;4807594;29;20385;-85
2022/12/30 01:20:39;;;;;;;;;;;;;;;;;;4807484;29;19921;-84
2022/12/30 01:23:05;;;;;;;;;;;;;;;;;;4791312;29;20335;-86
2022/12/30 01:25:30;;;;;;;;;;;;;;;;;;4807450;29;19971;-84
2022/12/30 01:27:55;;;;;;;;;;;;;;;;;;4807424;29;20016;-84
2022/12/30 01:30:21;;;;;;;;;;;;;;;;;;4807319;29;19925;-84
2022/12/30 01:32:46;;;;;;;;;;;;;;;;;;4807305;29;19921;-84
2022/12/30 01:35:12;;;;;;;;;;;;;;;;;;4807290;29;19974;-84
2022/12/30 01:37:37;;;;;;;;;;;;;;;;;;4807414;29;19922;-84
2022/12/30 01:40:03;;;;;;;;;;;;;;;;;;4807236;29;19927;-85
2022/12/30 01:42:29;;;;;;;;;;;;;;;;;;4807223;29;19921;-86
2022/12/30 01:44:56;;;;;;;;;;;;;;;;;;4807669;29;19932;-85
2022/12/30 01:47:24;;;;;;;;;;;;;;;;;;4807157;29;19983;-85
2022/12/30 01:49:51;;;;;;;;;;;;;;;;;;4807108;29;20027;-85
2022/12/30 01:52:18;;;;;;;;;;;;;;;;;;4805594;29;19975;-85
2022/12/30 01:54:43;;;;;;;;;;;;;;;;;;4807009;29;19921;-86
2022/12/30 01:57:09;;;;;;;;;;;;;;;;;;4790779;29;20297;-86
2022/12/30 01:59:35;;;;;;;;;;;;;;;;;;4790704;29;19944;-85
2022/12/30 02:02:01;;;;;;;;;;;;;;;;;;4806915;29;19979;-85
2022/12/30 02:04:27;;;;;;;;;;;;;;;;;;4790694;29;19925;-85
2022/12/30 02:06:58;;;;;;;;;;;;;;;;;;4806931;29;20339;-86
2022/12/30 02:09:24;;;;;;;;;;;;;;;;;;4806803;29;20085;-86
2022/12/30 02:11:50;;;;;;;;;;;;;;;;;;4807143;29;20020;-87
2022/12/30 02:14:15;;;;;;;;;;;;;;;;;;4790739;29;20385;-85
2022/12/30 02:17:05;;;;;;;;;;;;;;;;;;4806288;29;19928;-86
2022/12/30 02:19:33;;;;;;;;;;;;;;;;;;4790598;29;19921;-86
2022/12/30 02:22:07;;;;;;;;;;;;;;;;;;4806664;29;20370;-85
2022/12/30 02:24:51;;;;;;;;;;;;;;;;;;4790536;29;19921;-86
2022/12/30 02:27:20;;;;;;;;;;;;;;;;;;4790655;29;19917;-86
2022/12/30 02:29:51;;;;;;;;;;;;;;;;;;4806751;29;19921;-86
2022/12/30 02:32:26;;;;;;;;;;;;;;;;;;4806733;29;20007;-85
2022/12/30 02:35:07;;;;;;;;;;;;;;;;;;4806681;29;20065;-85
2022/12/30 02:37:32;;;;;;;;;;;;;;;;;;4806667;29;19930;-86
2022/12/30 02:39:58;;;;;;;;;;;;;;;;;;4807142;29;20366;-84
2022/12/30 02:45:16;;;;;;;;;;;;;;;;;;4806831;29;19979;-85
2022/12/30 02:47:50;;;;;;;;;;;;;;;;;;4790358;29;19925;-85
2022/12/30 02:53:04;;;;;;;;;;;;;;;;;;4806499;29;20396;-86
2022/12/30 02:55:30;;;;;;;;;;;;;;;;;;4806494;29;20282;-85
2022/12/30 02:57:55;;;;;;;;;;;;;;;;;;4806798;29;19970;-86
2022/12/30 03:06:05;;;;;;;;;;;;;;;;;;4806563;29;19929;-85
2022/12/30 03:08:39;;;;;;;;;;;;;;;;;;4806437;29;20366;-85
2022/12/30 03:11:17;;;;;;;;;;;;;;;;;;4806347;29;19921;-86
2022/12/30 03:13:49;;;;;;;;;;;;;;;;;;4806324;29;19929;-84
2022/12/30 03:16:21;;;;;;;;;;;;;;;;;;4805177;29;20309;-85
2022/12/30 03:18:47;;;;;;;;;;;;;;;;;;4805118;29;19921;-85
2022/12/30 03:21:13;;;;;;;;;;;;;;;;;;4806396;29;20027;-85
2022/12/30 03:29:12;;;;;;;;;;;;;;;;;;4808300;29;20389;-86
2022/12/30 03:31:37;;;;;;;;;;;;;;;;;;4817781;29;19927;-86
2022/12/30 03:34:03;;;;;;;;;;;;;;;;;;4828027;29;19960;-85
2022/12/30 03:36:31;;;;;;;;;;;;;;;;;;4829583;29;19947;-85
2022/12/30 03:39:06;;;;;;;;;;;;;;;;;;4829130;29;19988;-84
2022/12/30 03:41:32;;;;;;;;;;;;;;;;;;4793848;29;19940;-85
2022/12/30 03:43:57;;;;;;;;;;;;;;;;;;4809647;29;19927;-86
2022/12/30 03:46:27;;;;;;;;;;;;;;;;;;4809314;29;19921;-86
2022/12/30 03:48:52;;;;;;;;;;;;;;;;;;4793259;29;20294;-84
2022/12/30 03:51:18;;;;;;;;;;;;;;;;;;4809128;29;19922;-85
2022/12/30 03:53:43;;;;;;;;;;;;;;;;;;4807864;29;19925;-84
2022/12/30 03:56:08;;;;;;;;;;;;;;;;;;4809039;29;19921;-85
2022/12/30 03:58:34;;;;;;;;;;;;;;;;;;4809244;29;19921;-84
2022/12/30 04:00:59;;;;;;;;;;;;;;;;;;4792807;29;20293;-85
2022/12/30 04:03:25;;;;;;;;;;;;;;;;;;4808984;29;19921;-85
2022/12/30 04:05:54;;;;;;;;;;;;;;;;;;4793027;29;19921;-85
2022/12/30 04:08:20;;;;;;;;;;;;;;;;;;4792498;29;19921;-85
2022/12/30 04:10:45;;;;;;;;;;;;;;;;;;4792733;29;19929;-85
2022/12/30 04:13:10;;;;;;;;;;;;;;;;;;4808948;29;19921;-85
2022/12/30 04:15:36;;;;;;;;;;;;;;;;;;4809162;29;19952;-85
2022/12/30 04:18:01;;;;;;;;;;;;;;;;;;4809736;29;19933;-85
2022/12/30 04:20:27;;;;;;;;;;;;;;;;;;4792335;29;20374;-86
2022/12/30 04:22:55;;;;;;;;;;;;;;;;;;4809058;29;20289;-85
2022/12/30 04:25:20;;;;;;;;;;;;;;;;;;4792384;29;19921;-85
2022/12/30 04:27:46;;;;;;;;;;;;;;;;;;4792391;29;19986;-85
2022/12/30 04:30:11;;;;;;;;;;;;;;;;;;4808588;29;19925;-84
2022/12/30 04:32:37;;;;;;;;;;;;;;;;;;4808462;29;19928;-86
2022/12/30 04:35:03;;;;;;;;;;;;;;;;;;4808535;29;19928;-85
2022/12/30 04:37:28;;;;;;;;;;;;;;;;;;4808515;29;20016;-87
2022/12/30 04:39:54;;;;;;;;;;;;;;;;;;4791580;29;19960;-85
2022/12/30 04:42:19;;;;;;;;;;;;;;;;;;4792083;29;20289;-85
2022/12/30 04:44:45;;;;;;;;;;;;;;;;;;4792098;29;20020;-85
2022/12/30 04:47:10;;;;;;;;;;;;;;;;;;4808254;29;19928;-85
2022/12/30 04:49:35;;;;;;;;;;;;;;;;;;4808913;29;19921;-85
2022/12/30 04:52:01;;;;;;;;;;;;;;;;;;4807926;29;19936;-85
2022/12/30 04:54:26;;;;;;;;;;;;;;;;;;4808171;29;19921;-85
2022/12/30 04:56:52;;;;;;;;;;;;;;;;;;4791870;29;19932;-86
2022/12/30 04:59:17;;;;;;;;;;;;;;;;;;4808379;29;20374;-84
2022/12/30 05:01:42;;;;;;;;;;;;;;;;;;4791895;29;19921;-85
2022/12/30 05:04:08;;;;;;;;;;;;;;;;;;4808021;29;20433;-85
2022/12/30 05:06:33;;;;;;;;;;;;;;;;;;4807830;29;19917;-85
2022/12/30 05:08:59;;;;;;;;;;;;;;;;;;4807882;29;19921;-85
2022/12/30 05:11:24;;;;;;;;;;;;;;;;;;4807935;29;19924;-85
2022/12/30 05:13:49;;;;;;;;;;;;;;;;;;4807847;29;19961;-85
2022/12/30 05:16:15;;;;;;;;;;;;;;;;;;4807816;29;20390;-85
2022/12/30 05:18:40;;;;;;;;;;;;;;;;;;4808041;29;19917;-85
2022/12/30 05:21:06;;;;;;;;;;;;;;;;;;4791519;29;19921;-85
2022/12/30 05:26:15;;;;;;;;;;;;;;;;;;4808334;29;19944;-86
2022/12/30 05:28:42;;;;;;;;;;;;;;;;;;4807573;29;20362;-85
2022/12/30 05:31:07;;;;;;;;;;;;;;;;;;4806258;29;19921;-86
2022/12/30 05:33:33;;;;;;;;;;;;;;;;;;4807458;29;19929;-86
2022/12/30 05:35:58;;;;;;;;;;;;;;;;;;4807373;29;20393;-85
2022/12/30 05:38:23;;;;;;;;;;;;;;;;;;4806121;29;19998;-86
2022/12/30 05:40:50;;;;;;;;;;;;;;;;;;4807476;29;19921;-87
2022/12/30 05:43:15;;;;;;;;;;;;;;;;;;4807284;29;19997;-85
2022/12/30 05:45:41;;;;;;;;;;;;;;;;;;4791016;29;19921;-85
2022/12/30 05:48:06;;;;;;;;;;;;;;;;;;4807204;29;19956;-85
2022/12/30 05:50:31;;;;;;;;;;;;;;;;;;4806654;29;19932;-86
2022/12/30 05:52:57;;;;;;;;;;;;;;;;;;4807000;29;19960;-86
2022/12/30 05:55:22;;;;;;;;;;;;;;;;;;4807498;29;19977;-85
2022/12/30 05:57:47;;;;;;;;;;;;;;;;;;4807185;29;19921;-86
2022/12/30 06:00:13;;;;;;;;;;;;;;;;;;4807002;29;19925;-85
2022/12/30 06:02:39;;;;;;;;;;;;;;;;;;4805851;29;19921;-85
2022/12/30 06:05:04;;;;;;;;;;;;;;;;;;4805829;29;20265;-85
2022/12/30 06:07:30;;;;;;;;;;;;;;;;;;4807860;29;19928;-85
2022/12/30 06:09:55;;;;;;;;;;;;;;;;;;4791674;29;20330;-85
2022/12/30 06:12:21;;;;;;;;;;;;;;;;;;4806804;29;19970;-86
2022/12/30 06:14:46;;;;;;;;;;;;;;;;;;4806622;29;19974;-85
2022/12/30 06:17:11;;;;;;;;;;;;;;;;;;4806869;29;19925;-85
2022/12/30 06:19:37;;;;;;;;;;;;;;;;;;4790626;29;20282;-85
2022/12/30 06:22:12;;;;;;;;;;;;;;;;;;4823650;23;19981;-86
2022/12/30 06:24:37;;;;;;;;;;;;;;;;;;4843613;29;19920;-84
2022/12/30 06:27:02;;;;;;;;;;;;;;;;;;4843116;29;19931;-85
2022/12/30 06:29:28;;;;;;;;;;;;;;;;;;4826749;29;19924;-84
2022/12/30 06:31:53;;;;;;;;;;;;;;;;;;4826857;29;19927;-84
2022/12/30 06:34:18;;;;;;;;;;;;;;;;;;4843600;29;19928;-85
2022/12/30 06:36:44;;;;;;;;;;;;;;;;;;4826644;29;20291;-85
2022/12/30 06:39:09;;;;;;;;;;;;;;;;;;4826622;29;19973;-85
2022/12/30 06:41:35;;;;;;;;;;;;;;;;;;4826401;29;19925;-86
2022/12/30 06:44:00;;;;;;;;;;;;;;;;;;4843216;29;19921;-85
2022/12/30 06:46:25;;;;;;;;;;;;;;;;;;4825950;29;20397;-86
2022/12/30 06:48:51;;;;;;;;;;;;;;;;;;4842880;29;19920;-85
2022/12/30 06:51:16;;;;;;;;;;;;;;;;;;4842659;29;19977;-85
2022/12/30 06:53:42;;;;;;;;;;;;;;;;;;4826747;29;20370;-87
2022/12/30 06:56:07;;;;;;;;;;;;;;;;;;4842288;29;19931;-88
2022/12/30 06:58:33;;;;;;;;;;;;;;;;;;4842236;29;20007;-85
2022/12/30 07:00:58;;;;;;;;;;;;;;;;;;4842674;29;20015;-87
2022/12/30 07:03:24;;;;;;;;;;;;;;;;;;4845186;29;19921;-85
2022/12/30 07:05:49;;;;;;;;;;;;;;;;;;4845758;29;19967;-88
2022/12/30 07:08:15;;;;;;;;;;;;;;;;;;4845857;29;19924;-88
2022/12/30 07:10:40;;;;;;;;;;;;;;;;;;4845737;29;19921;-88
2022/12/30 07:13:05;;;;;;;;;;;;;;;;;;4829665;29;20285;-88
2022/12/30 07:15:31;;;;;;;;;;;;;;;;;;4846052;29;19920;-87
2022/12/30 07:17:56;;;;;;;;;;;;;;;;;;4845668;29;20345;-88
2022/12/30 07:20:22;;;;;;;;;;;;;;;;;;4828802;29;19920;-88
2022/12/30 07:22:47;;;;;;;;;;;;;;;;;;4828631;29;19924;-88
2022/12/30 07:25:12;;;;;;;;;;;;;;;;;;4846184;29;20388;-86
2022/12/30 07:27:39;;;;;;;;;;;;;;;;;;4846269;29;20016;-88
2022/12/30 07:30:05;;;;;;;;;;;;;;;;;;4845870;29;20034;-88
2022/12/30 07:32:30;;;;;;;;;;;;;;;;;;4844544;29;19928;-88
2022/12/30 07:34:56;;;;;;;;;;;;;;;;;;4859973;29;19920;-89
2022/12/30 07:37:21;;;;;;;;;;;;;;;;;;4844585;29;19920;-88
2022/12/30 07:39:47;;;;;;;;;;;;;;;;;;4845847;29;20373;-88
2022/12/30 07:42:12;;;;;;;;;;;;;;;;;;4844533;29;19924;-88
2022/12/30 07:44:37;;;;;;;;;;;;;;;;;;4846010;29;20303;-89
2022/12/30 07:47:04;;;;;;;;;;;;;;;;;;4845970;29;19925;-88
2022/12/30 07:49:29;;;;;;;;;;;;;;;;;;4855596;29;20401;-88
2022/12/30 07:51:54;;;;;;;;;;;;;;;;;;4862197;29;19916;-87
2022/12/30 07:54:20;;;;;;;;;;;;;;;;;;4868936;29;19909;-85
2022/12/30 07:56:45;;;;;;;;;;;;;;;;;;4869498;29;19929;-87
2022/12/30 07:59:11;;;;;;;;;;;;;;;;;;4859086;29;19932;-87
2022/12/30 08:01:37;;;;;;;;;;;;;;;;;;4846607;29;20288;-87
2022/12/30 08:04:03;;;;;;;;;;;;;;;;;;4846202;29;19924;-88
2022/12/30 08:06:28;;;;;;;;;;;;;;;;;;4845425;29;19920;-88
2022/12/30 08:08:54;;;;;;;;;;;;;;;;;;4845640;29;19925;-87
2022/12/30 08:11:19;;;;;;;;;;;;;;;;;;4846727;29;19927;-87
2022/12/30 08:13:44;;;;;;;;;;;;;;;;;;4843922;29;19921;-88
2022/12/30 08:16:12;;;;;;;;;;;;;;;;;;4844770;29;19932;-87
2022/12/30 08:18:37;;;;;;;;;;;;;;;;;;4844803;29;19970;-90
2022/12/30 08:21:04;;;;;;;;;;;;;;;;;;4844522;29;19964;-89
2022/12/30 08:23:29;;;;;;;;;;;;;;;;;;4844240;29;19925;-89
2022/12/30 08:25:55;;;;;;;;;;;;;;;;;;4844520;29;19920;-91
2022/12/30 08:28:20;;;;;;;;;;;;;;;;;;4844227;29;19916;-87
2022/12/30 08:30:46;;;;;;;;;;;;;;;;;;4845174;29;19927;-87
2022/12/30 08:33:11;;;;;;;;;;;;;;;;;;4827367;29;20350;-89
2022/12/30 08:35:37;;;;;;;;;;;;;;;;;;4828131;29;19916;-84
2022/12/30 08:38:02;;;;;;;;;;;;;;;;;;4844866;29;20300;-89
2022/12/30 08:40:28;;;;;;;;;;;;;;;;;;4844928;29;19924;-86
2022/12/30 08:42:53;;;;;;;;;;;;;;;;;;4828193;29;20015;-85
2022/12/30 08:45:18;;;;;;;;;;;;;;;;;;4844594;29;19984;-90
2022/12/30 08:47:44;;;;;;;;;;;;;;;;;;4845455;29;19927;-87
2022/12/30 08:50:09;;;;;;;;;;;;;;;;;;4844788;29;19921;-87
2022/12/30 08:52:35;;;;;;;;;;;;;;;;;;4828157;29;19920;-89
2022/12/30 08:55:01;;;;;;;;;;;;;;;;;;4844829;29;19928;-87
2022/12/30 08:57:26;;;;;;;;;;;;;;;;;;4844508;29;19927;-88
2022/12/30 08:59:51;;;;;;;;;;;;;;;;;;4844365;29;19921;-86
2022/12/30 09:02:17;;;;;;;;;;;;;;;;;;4844420;29;19964;-85
2022/12/30 09:04:42;;;;;;;;;;;;;;;;;;4827779;29;20395;-88
2022/12/30 09:07:08;;;;;;;;;;;;;;;;;;4831266;29;19927;-90
2022/12/30 09:09:33;;;;;;;;;;;;;;;;;;4833705;29;19971;-88
2022/12/30 09:11:59;;;;;;;;;;;;;;;;;;4830364;29;20015;-88
2022/12/30 09:14:24;;;;;;;;;;;;;;;;;;4844314;29;19921;-90
2022/12/30 09:16:50;;;;;;;;;;;;;;;;;;4850887;29;19920;-86
2022/12/30 09:19:16;;;;;;;;;;;;;;;;;;4827687;29;19921;-87
2022/12/30 09:21:41;;;;;;;;;;;;;;;;;;4844227;29;19920;-88
2022/12/30 09:24:07;;;;;;;;;;;;;;;;;;4845276;29;19921;-88
2022/12/30 09:26:33;;;;;;;;;;;;;;;;;;4844054;29;19925;-88
2022/12/30 09:28:58;;;;;;;;;;;;;;;;;;4844238;29;19924;-86
2022/12/30 09:31:24;;;;;;;;;;;;;;;;;;4844001;29;19921;-86
2022/12/30 09:33:50;;;;;;;;;;;;;;;;;;4843873;29;19960;-86
2022/12/30 09:36:15;;;;;;;;;;;;;;;;;;4827494;29;19920;-87
2022/12/30 09:38:41;;;;;;;;;;;;;;;;;;4844014;29;20395;-87
2022/12/30 09:41:09;;;;;;;;;;;;;;;;;;4843813;29;19921;-85
2022/12/30 09:43:53;;;;;;;;;;;;;;;;;;4827317;29;19924;-85
2022/12/30 09:46:21;;;;;;;;;;;;;;;;;;4844068;29;19920;-86
2022/12/30 09:49:13;;;;;;;;;;;;;;;;;;4827260;29;19920;-86
2022/12/30 09:51:51;;;;;;;;;;;;;;;;;;4820049;29;19960;-85
2022/12/30 09:54:19;;;;;;;;;;;;;;;;;;4843594;29;19921;-85
2022/12/30 09:56:45;;;;;;;;;;;;;;;;;;4843421;29;20408;-88
2022/12/30 09:59:24;;;;;;;;;;;;;;;;;;4843366;29;19928;-87
2022/12/30 10:01:53;;;;;;;;;;;;;;;;;;4843569;29;19964;-86
2022/12/30 10:04:19;;;;;;;;;;;;;;;;;;4843353;29;19920;-86
2022/12/30 10:06:49;;;;;;;;;;;;;;;;;;4827050;29;20015;-87
2022/12/30 10:09:24;;;;;;;;;;;;;;;;;;4843386;29;20369;-87
2022/12/30 10:12:08;;;;;;;;;;;;;;;;;;4827033;29;20015;-89
2022/12/30 10:14:33;;;;;;;;;;;;;;;;;;4927713;23;19934;-87
2022/12/30 10:17:21;;;;;;;;;;;;;;;;;;4827108;29;19928;-89
2022/12/30 10:20:07;;;;;;;;;;;;;;;;;;4843565;29;19969;-87
2022/12/30 10:22:45;;;;;;;;;;;;;;;;;;4843625;29;19978;-87
2022/12/30 10:25:19;;;;;;;;;;;;;;;;;;4843225;29;19920;-86
2022/12/30 10:27:48;;;;;;;;;;;;;;;;;;4826865;29;19921;-89
2022/12/30 10:30:15;;;;;;;;;;;;;;;;;;4843214;29;19985;-89
2022/12/30 10:32:44;;;;;;;;;;;;;;;;;;4844269;29;20362;-89
2022/12/30 10:35:20;;;;;;;;;;;;;;;;;;4843327;29;19974;-86
2022/12/30 10:37:48;;;;;;;;;;;;;;;;;;4845188;29;20007;-88
2022/12/30 10:40:14;;;;;;;;;;;;;;;;;;4846822;29;20391;-88
2022/12/30 10:42:46;;;;;;;;;;;;;;;;;;4846853;29;19921;-88
2022/12/30 10:45:21;;;;;;;;;;;;;;;;;;4846745;29;19976;-88
2022/12/30 10:48:05;;;;;;;;;;;;;;;;;;4846917;29;19921;-88
2022/12/30 10:50:39;;;;;;;;;;;;;;;;;;4830145;29;19921;-88
2022/12/30 10:53:08;;;;;;;;;;;;;;;;;;4846765;29;19924;-89
2022/12/30 10:55:36;;;;;;;;;;;;;;;;;;4829844;29;19924;-88
2022/12/30 10:58:03;;;;;;;;;;;;;;;;;;4846563;29;19920;-87
2022/12/30 11:00:32;;;;;;;;;;;;;;;;;;4846472;29;19928;-88
2022/12/30 11:03:00;;;;;;;;;;;;;;;;;;4846769;29;19921;-89
2022/12/30 11:05:38;;;;;;;;;;;;;;;;;;4846444;29;20011;-88
2022/12/30 11:08:05;;;;;;;;;;;;;;;;;;4829886;29;19993;-88
2022/12/30 11:10:31;;;;;;;;;;;;;;;;;;4829570;29;19917;-89
2022/12/30 11:16:10;;;;;;;;;;;;;;;;;;4841640;29;19932;-88
2022/12/30 11:18:35;;;;;;;;;;;;;;;;;;4845604;29;19920;-89
2022/12/30 11:21:01;;;;;;;;;;;;;;;;;;4845664;29;20373;-86
2022/12/30 11:23:29;;;;;;;;;;;;;;;;;;4845440;29;19976;-86
2022/12/30 11:25:55;;;;;;;;;;;;;;;;;;4843400;29;19924;-87
2022/12/30 11:28:22;;;;;;;;;;;;;;;;;;4846560;29;19920;-86
2022/12/30 11:30:50;;;;;;;;;;;;;;;;;;4845230;29;19946;-87
2022/12/30 11:33:18;;;;;;;;;;;;;;;;;;4845659;29;19920;-88
2022/12/30 11:35:46;;;;;;;;;;;;;;;;;;4845631;29;19920;-87
2022/12/30 11:38:30;;;;;;;;;;;;;;;;;;4845881;29;19924;-86
2022/12/30 11:40:55;;;;;;;;;;;;;;;;;;4845700;29;20392;-87
2022/12/30 11:43:21;;;;;;;;;;;;;;;;;;4845453;29;20020;-86
2022/12/30 11:45:59;;;;;;;;;;;;;;;;;;4845288;29;20395;-89
2022/12/30 11:48:30;;;;;;;;;;;;;;;;;;4828290;29;19947;-87
2022/12/30 11:50:56;;;;;;;;;;;;;;;;;;4845364;29;19920;-88
2022/12/30 11:53:24;;;;;;;;;;;;;;;;;;4845674;29;19925;-88
2022/12/30 11:55:53;;;;;;;;;;;;;;;;;;4845800;29;19960;-87
2022/12/30 11:58:19;;;;;;;;;;;;;;;;;;4845907;29;19920;-88
2022/12/30 12:00:46;;;;;;;;;;;;;;;;;;4828936;29;19925;-87
2022/12/30 12:03:15;;;;;;;;;;;;;;;;;;4857798;29;19959;-90
2022/12/30 12:05:44;;;;;;;;;;;;;;;;;;4858094;29;19932;-86
2022/12/30 12:08:24;;;;;;;;;;;;;;;;;;4862753;29;19968;-87
2022/12/30 12:10:54;;;;;;;;;;;;;;;;;;4860762;29;19921;-87
2022/12/30 12:13:29;;;;;;;;;;;;;;;;;;4835960;29;20506;-86
2022/12/30 12:15:56;;;;;;;;;;;;;;;;;;4847153;29;20321;-88
2022/12/30 12:18:27;;;;;;;;;;;;;;;;;;4846664;29;20016;-87
2022/12/30 12:21:11;;;;;;;;;;;;;;;;;;4829452;29;19920;-85
2022/12/30 12:23:45;;;;;;;;;;;;;;;;;;4845397;29;20284;-88
2022/12/30 12:26:18;;;;;;;;;;;;;;;;;;4845334;29;19928;-86
2022/12/30 12:28:45;;;;;;;;;;;;;;;;;;4844949;29;19920;-85
2022/12/30 12:31:11;;;;;;;;;;;;;;;;;;4844981;29;20012;-86
2022/12/30 12:33:36;;;;;;;;;;;;;;;;;;4844831;29;19925;-86
2022/12/30 12:36:01;;;;;;;;;;;;;;;;;;4827615;29;19931;-85
2022/12/30 12:38:27;;;;;;;;;;;;;;;;;;4844768;29;20393;-85
2022/12/30 12:40:52;;;;;;;;;;;;;;;;;;4844937;29;19921;-85
2022/12/30 12:43:22;;;;;;;;;;;;;;;;;;4844640;29;19927;-85
2022/12/30 12:45:51;;;;;;;;;;;;;;;;;;4844503;29;20008;-84
2022/12/30 12:48:40;;;;;;;;;;;;;;;;;;4828097;29;20265;-85
2022/12/30 12:51:08;;;;;;;;;;;;;;;;;;4844490;29;19939;-85
2022/12/30 12:53:39;;;;;;;;;;;;;;;;;;4844445;29;20355;-85
2022/12/30 12:56:10;;;;;;;;;;;;;;;;;;4844452;29;19927;-85
2022/12/30 12:58:41;;;;;;;;;;;;;;;;;;4844346;29;19983;-85
2022/12/30 13:01:21;;;;;;;;;;;;;;;;;;4844235;29;19921;-85
2022/12/30 13:03:53;;;;;;;;;;;;;;;;;;4844551;29;19921;-84
2022/12/30 13:06:33;;;;;;;;;;;;;;;;;;4844185;29;19920;-86
2022/12/30 13:09:17;;;;;;;;;;;;;;;;;;4844175;29;19920;-85
2022/12/30 13:11:48;;;;;;;;;;;;;;;;;;4844127;29;19920;-84
2022/12/30 13:14:20;;;;;;;;;;;;;;;;;;4844052;29;19927;-84
2022/12/30 13:16:48;;;;;;;;;;;;;;;;;;4843740;29;19931;-85
2022/12/30 13:19:18;;;;;;;;;;;;;;;;;;4843977;29;20266;-87
2022/12/30 13:21:45;;;;;;;;;;;;;;;;;;4827776;29;19927;-84
2022/12/30 13:24:15;;;;;;;;;;;;;;;;;;4843981;29;20452;-84
2022/12/30 13:26:41;;;;;;;;;;;;;;;;;;4843897;29;20296;-86
2022/12/30 13:29:07;;;;;;;;;;;;;;;;;;4843819;29;19921;-85
2022/12/30 13:31:44;;;;;;;;;;;;;;;;;;4843704;29;19916;-85
2022/12/30 13:34:15;;;;;;;;;;;;;;;;;;4844009;29;19926;-85
2022/12/30 13:36:40;;;;;;;;;;;;;;;;;;4827445;29;19916;-84
2022/12/30 13:39:24;;;;;;;;;;;;;;;;;;4843463;29;19927;-85
2022/12/30 13:42:08;;;;;;;;;;;;;;;;;;4843805;29;20023;-85
2022/12/30 13:44:34;;;;;;;;;;;;;;;;;;4843593;29;19920;-84
2022/12/30 13:47:00;;;;;;;;;;;;;;;;;;4843480;29;19917;-85
2022/12/30 13:49:30;;;;;;;;;;;;;;;;;;4843577;29;19920;-85
2022/12/30 13:52:14;;;;;;;;;;;;;;;;;;4843537;29;20008;-88
2022/12/30 13:54:48;;;;;;;;;;;;;;;;;;4843718;29;19968;-86
2022/12/30 13:57:27;;;;;;;;;;;;;;;;;;4843738;29;20023;-85
2022/12/30 14:00:06;;;;;;;;;;;;;;;;;;4827166;29;19976;-86
2022/12/30 14:02:34;;;;;;;;;;;;;;;;;;4843948;29;20019;-86
2022/12/30 14:05:01;;;;;;;;;;;;;;;;;;4842904;29;20269;-86
2022/12/30 14:07:38;;;;;;;;;;;;;;;;;;4843461;29;19920;-85
2022/12/30 14:10:30;;;;;;;;;;;;;;;;;;4843281;29;19927;-85
2022/12/30 14:13:14;;;;;;;;;;;;;;;;;;4805287;29;19932;-86
2022/12/30 14:15:42;;;;;;;;;;;;;;;;;;4842753;29;20301;-86
2022/12/30 14:18:12;;;;;;;;;;;;;;;;;;4843785;29;19976;-85
2022/12/30 14:20:38;;;;;;;;;;;;;;;;;;4842172;29;19920;-86
2022/12/30 14:23:04;;;;;;;;;;;;;;;;;;4843006;29;19928;-85
2022/12/30 14:25:29;;;;;;;;;;;;;;;;;;4826785;29;19916;-86
2022/12/30 14:28:10;;;;;;;;;;;;;;;;;;4826824;29;19925;-87
2022/12/30 14:30:38;;;;;;;;;;;;;;;;;;4842231;29;19920;-86
2022/12/30 14:33:04;;;;;;;;;;;;;;;;;;4842794;29;20302;-86
2022/12/30 14:35:30;;;;;;;;;;;;;;;;;;4842961;29;19999;-85
2022/12/30 14:38:14;;;;;;;;;;;;;;;;;;4843142;29;19952;-86
2022/12/30 14:40:39;;;;;;;;;;;;;;;;;;4842981;29;19920;-85
2022/12/30 14:43:05;;;;;;;;;;;;;;;;;;4826616;29;20292;-86
2022/12/30 14:45:30;;;;;;;;;;;;;;;;;;4843357;29;19921;-85
2022/12/30 14:47:56;;;;;;;;;;;;;;;;;;4843110;29;19921;-85
2022/12/30 14:50:27;;;;;;;;;;;;;;;;;;4826702;29;19920;-85
2022/12/30 14:52:58;;;;;;;;;;;;;;;;;;4843036;29;19921;-85
2022/12/30 14:55:25;;;;;;;;;;;;;;;;;;4843251;29;19921;-85
2022/12/30 14:58:02;;;;;;;;;;;;;;;;;;4826548;29;20032;-86
2022/12/30 15:00:30;;;;;;;;;;;;;;;;;;4843490;29;19920;-84
2022/12/30 15:02:57;;;;;;;;;;;;;;;;;;4826527;29;19921;-85
2022/12/30 15:05:30;;;;;;;;;;;;;;;;;;4826397;29;19921;-86
2022/12/30 15:08:06;;;;;;;;;;;;;;;;;;4842904;29;19924;-86
2022/12/30 15:10:32;;;;;;;;;;;;;;;;;;4842793;29;20373;-85
2022/12/30 15:13:11;;;;;;;;;;;;;;;;;;4842875;29;19928;-86
2022/12/30 15:15:38;;;;;;;;;;;;;;;;;;4836138;29;20372;-86
2022/12/30 15:18:16;;;;;;;;;;;;;;;;;;4842854;29;19927;-86
2022/12/30 15:20:41;;;;;;;;;;;;;;;;;;4842655;29;20400;-85
2022/12/30 15:23:11;;;;;;;;;;;;;;;;;;4844070;29;19921;-85
2022/12/30 15:25:37;;;;;;;;;;;;;;;;;;4845911;29;19927;-86
2022/12/30 15:28:02;;;;;;;;;;;;;;;;;;4845818;29;19920;-88
2022/12/30 15:30:28;;;;;;;;;;;;;;;;;;4846026;29;19927;-88
2022/12/30 15:33:07;;;;;;;;;;;;;;;;;;4846326;29;19920;-88
2022/12/30 15:35:34;;;;;;;;;;;;;;;;;;4846108;29;20041;-88
2022/12/30 15:38:00;;;;;;;;;;;;;;;;;;4845807;29;19984;-88
2022/12/30 15:40:27;;;;;;;;;;;;;;;;;;4846014;29;19921;-88
2022/12/30 15:42:57;;;;;;;;;;;;;;;;;;4845661;29;20292;-87
2022/12/30 15:45:39;;;;;;;;;;;;;;;;;;4828526;29;19920;-87
2022/12/30 15:48:21;;;;;;;;;;;;;;;;;;4845633;29;20315;-86
2022/12/30 15:50:50;;;;;;;;;;;;;;;;;;4845630;29;19920;-86
2022/12/30 15:53:36;;;;;;;;;;;;;;;;;;4845516;29;19925;-87
2022/12/30 15:56:02;;;;;;;;;;;;;;;;;;4829038;29;19920;-86
2022/12/30 15:58:32;;;;;;;;;;;;;;;;;;4845474;29;19969;-88
2022/12/30 16:01:06;;;;;;;;;;;;;;;;;;4843102;29;19943;-86
2022/12/30 16:03:32;;;;;;;;;;;;;;;;;;4840937;29;19948;-87
2022/12/30 16:05:58;;;;;;;;;;;;;;;;;;4843945;29;19921;-87
2022/12/30 16:08:34;;;;;;;;;;;;;;;;;;4844159;29;20016;-87
2022/12/30 16:11:22;;;;;;;;;;;;;;;;;;4842782;29;19935;-86
2022/12/30 16:13:48;;;;;;;;;;;;;;;;;;4837485;29;19921;-87
2022/12/30 16:16:17;;;;;;;;;;;;;;;;;;4844601;29;19980;-87
2022/12/30 16:18:43;;;;;;;;;;;;;;;;;;4844789;29;19920;-86
2022/12/30 16:21:08;;;;;;;;;;;;;;;;;;4844907;29;19920;-87
2022/12/30 16:23:35;;;;;;;;;;;;;;;;;;4844637;29;20361;-88
2022/12/30 16:26:02;;;;;;;;;;;;;;;;;;4837596;29;19921;-87
2022/12/30 16:28:34;;;;;;;;;;;;;;;;;;4836702;29;19920;-87
2022/12/30 16:31:00;;;;;;;;;;;;;;;;;;4862154;29;19920;-86
2022/12/30 16:33:25;;;;;;;;;;;;;;;;;;4865771;29;19954;-86
2022/12/30 16:35:58;;;;;;;;;;;;;;;;;;4839888;29;20397;-89
2022/12/30 16:38:33;;;;;;;;;;;;;;;;;;4845783;29;19955;-85
2022/12/30 16:40:59;;;;;;;;;;;;;;;;;;4845876;29;19927;-87
2022/12/30 16:43:24;;;;;;;;;;;;;;;;;;4828323;29;19924;-88
2022/12/30 16:45:50;;;;;;;;;;;;;;;;;;4828056;29;19928;-87
2022/12/30 16:48:15;;;;;;;;;;;;;;;;;;4842970;29;19943;-87
2022/12/30 16:50:42;;;;;;;;;;;;;;;;;;4828165;29;20369;-88
2022/12/30 16:53:14;;;;;;;;;;;;;;;;;;4844622;29;20015;-88
2022/12/30 16:55:40;;;;;;;;;;;;;;;;;;4844023;29;19928;-86
2022/12/30 16:58:08;;;;;;;;;;;;;;;;;;4843976;29;19964;-87
2022/12/30 17:00:34;;;;;;;;;;;;;;;;;;4843916;29;19921;-87
2022/12/30 17:03:03;;;;;;;;;;;;;;;;;;4844704;29;19920;-88
2022/12/30 17:05:31;;;;;;;;;;;;;;;;;;4844838;29;19977;-87
2022/12/30 17:07:57;;;;;;;;;;;;;;;;;;4828057;29;19927;-88
2022/12/30 17:13:10;;;;;;;;;;;;;;;;;;4845059;29;19927;-87
2022/12/30 17:15:36;;;;;;;;;;;;;;;;;;4827586;29;19924;-87
2022/12/30 17:18:01;;;;;;;;;;;;;;;;;;4844060;29;19926;-87
2022/12/30 17:20:26;;;;;;;;;;;;;;;;;;4844306;29;19983;-88
2022/12/30 17:22:55;;;;;;;;;;;;;;;;;;4827732;29;19927;-88
2022/12/30 17:25:20;;;;;;;;;;;;;;;;;;4844207;29;19923;-85
2022/12/30 17:27:46;;;;;;;;;;;;;;;;;;4827614;29;19929;-88
2022/12/30 17:30:12;;;;;;;;;;;;;;;;;;4843178;29;19924;-87
2022/12/30 17:32:40;;;;;;;;;;;;;;;;;;4845198;29;19920;-88
2022/12/30 17:35:05;;;;;;;;;;;;;;;;;;4826922;29;20418;-88
2022/12/30 17:37:31;;;;;;;;;;;;;;;;;;4827402;29;19959;-88
2022/12/30 17:39:56;;;;;;;;;;;;;;;;;;4827474;29;19924;-87
2022/12/30 17:42:21;;;;;;;;;;;;;;;;;;4827421;29;19927;-87
2022/12/30 17:44:47;;;;;;;;;;;;;;;;;;4843251;29;20284;-90
2022/12/30 17:47:15;;;;;;;;;;;;;;;;;;4826252;29;19932;-86
2022/12/30 17:49:41;;;;;;;;;;;;;;;;;;4812267;29;19973;-87